createdAt,value
2019-03-27T00:02:18.689Z,20.22
2019-03-27T00:04:47.081Z,20.21
2019-03-27T00:07:15.474Z,20.20
2019-03-27T00:09:43.871Z,20.18
2019-03-27T00:12:12.334Z,20.17
2019-03-27T00:14:40.729Z,20.17
2019-03-27T00:17:09.114Z,20.15
2019-03-27T00:19:37.558Z,20.14
2019-03-27T00:22:06.024Z,20.13
2019-03-27T00:24:34.408Z,20.12
2019-03-27T00:27:02.808Z,20.11
2019-03-27T00:29:31.199Z,20.11
2019-03-27T00:31:59.612Z,20.11
2019-03-27T00:34:28.089Z,20.11
2019-03-27T00:36:56.518Z,20.10
2019-03-27T00:39:24.926Z,20.09
2019-03-27T00:41:53.352Z,20.09
2019-03-27T00:44:21.745Z,20.08
2019-03-27T00:46:50.182Z,20.05
2019-03-27T00:49:18.568Z,20.04
2019-03-27T00:51:46.986Z,20.04
2019-03-27T00:54:15.377Z,20.03
2019-03-27T00:56:43.797Z,20.02
2019-03-27T00:59:12.195Z,20.02
2019-03-27T01:01:40.692Z,20.00
2019-03-27T01:04:09.086Z,20.01
2019-03-27T01:06:37.492Z,19.99
2019-03-27T01:09:06.118Z,20.00
2019-03-27T01:11:34.505Z,19.99
2019-03-27T01:14:02.893Z,19.98
2019-03-27T01:16:31.285Z,19.97
2019-03-27T01:18:59.682Z,19.96
2019-03-27T01:21:28.202Z,19.97
2019-03-27T01:23:56.593Z,19.96
2019-03-27T01:26:24.975Z,19.93
2019-03-27T01:28:53.365Z,19.92
2019-03-27T01:31:21.748Z,19.90
2019-03-27T01:33:50.130Z,19.91
2019-03-27T01:36:18.522Z,19.90
2019-03-27T01:38:46.934Z,19.88
2019-03-27T01:41:15.324Z,19.87
2019-03-27T01:43:43.707Z,19.86
2019-03-27T01:46:12.092Z,19.85
2019-03-27T01:48:40.482Z,19.84
2019-03-27T01:51:08.864Z,19.84
2019-03-27T01:53:37.433Z,19.83
2019-03-27T01:56:05.822Z,19.83
2019-03-27T01:58:34.245Z,19.82
2019-03-27T02:01:02.672Z,19.82
2019-03-27T02:03:31.181Z,19.81
2019-03-27T02:05:59.565Z,19.78
2019-03-27T02:08:28.046Z,19.81
2019-03-27T02:10:56.504Z,19.79
2019-03-27T02:13:24.929Z,19.78
2019-03-27T02:16:05.903Z,19.78
2019-03-27T02:18:23.473Z,19.76
2019-03-27T02:20:51.860Z,19.77
2019-03-27T02:23:20.287Z,19.77
2019-03-27T02:25:48.865Z,19.76
2019-03-27T02:28:17.292Z,19.75
2019-03-27T02:30:45.676Z,19.75
2019-03-27T02:33:14.105Z,19.74
2019-03-27T02:35:42.494Z,19.75
2019-03-27T02:38:10.949Z,19.72
2019-03-27T02:40:39.356Z,19.72
2019-03-27T02:43:07.789Z,19.72
2019-03-27T02:45:36.172Z,19.71
2019-03-27T02:48:04.614Z,19.69
2019-03-27T02:50:32.999Z,19.69
2019-03-27T02:53:01.437Z,19.68
2019-03-27T02:55:29.787Z,19.67
2019-03-27T02:57:58.168Z,19.68
2019-03-27T03:00:26.556Z,19.69
2019-03-27T03:02:54.942Z,19.68
2019-03-27T03:05:23.335Z,19.65
2019-03-27T03:07:51.730Z,19.65
2019-03-27T03:10:20.142Z,19.65
2019-03-27T03:12:48.538Z,19.64
2019-03-27T03:15:20.186Z,19.63
2019-03-27T03:17:49.014Z,19.62
2019-03-27T03:20:17.411Z,19.61
2019-03-27T03:22:45.840Z,19.60
2019-03-27T03:25:14.232Z,19.59
2019-03-27T03:27:42.668Z,19.58
2019-03-27T03:30:11.170Z,19.59
2019-03-27T03:32:39.892Z,19.59
2019-03-27T03:35:08.766Z,19.58
2019-03-27T03:37:37.188Z,19.58
2019-03-27T03:40:06.358Z,19.58
2019-03-27T03:42:34.759Z,19.55
2019-03-27T03:45:03.420Z,19.56
2019-03-27T03:47:31.811Z,19.56
2019-03-27T03:50:00.520Z,19.55
2019-03-27T03:52:29.001Z,19.55
2019-03-27T03:54:57.463Z,19.54
2019-03-27T03:57:26.929Z,19.54
2019-03-27T03:59:55.314Z,19.53
2019-03-27T04:02:23.711Z,19.51
2019-03-27T04:04:52.181Z,19.51
2019-03-27T04:07:20.571Z,19.50
2019-03-27T04:09:48.981Z,19.50
2019-03-27T04:12:17.379Z,19.50
2019-03-27T04:14:45.754Z,19.50
2019-03-27T04:17:17.388Z,19.48
2019-03-27T04:19:44.299Z,19.48
2019-03-27T04:22:12.684Z,19.48
2019-03-27T04:24:41.095Z,19.47
2019-03-27T04:27:09.502Z,19.48
2019-03-27T04:29:37.915Z,19.47
2019-03-27T04:32:06.331Z,19.46
2019-03-27T04:34:34.742Z,19.47
2019-03-27T04:37:03.131Z,19.43
2019-03-27T04:39:31.511Z,19.44
2019-03-27T04:41:59.904Z,19.44
2019-03-27T04:44:28.314Z,19.43
2019-03-27T04:46:56.883Z,19.45
2019-03-27T04:49:25.318Z,19.44
2019-03-27T04:51:53.710Z,19.44
2019-03-27T04:54:22.208Z,19.43
2019-03-27T04:56:50.603Z,19.41
2019-03-27T04:59:19.118Z,19.43
2019-03-27T05:01:47.516Z,19.43
2019-03-27T05:04:16.002Z,19.40
2019-03-27T05:06:44.397Z,19.39
2019-03-27T05:09:12.814Z,19.41
2019-03-27T05:11:41.275Z,19.39
2019-03-27T05:14:09.711Z,19.39
2019-03-27T05:16:38.198Z,19.39
2019-03-27T05:19:06.717Z,19.38
2019-03-27T05:21:35.130Z,19.37
2019-03-27T05:24:03.561Z,19.37
2019-03-27T05:26:31.945Z,19.35
2019-03-27T05:29:00.393Z,19.35
2019-03-27T05:31:28.790Z,19.35
2019-03-27T05:33:57.225Z,19.37
2019-03-27T05:36:25.622Z,19.36
2019-03-27T05:38:54.032Z,19.37
2019-03-27T05:41:22.425Z,19.37
2019-03-27T05:43:50.861Z,19.38
2019-03-27T05:46:19.241Z,19.40
2019-03-27T05:48:47.670Z,19.39
2019-03-27T05:51:16.101Z,19.38
2019-03-27T05:53:44.522Z,19.37
2019-03-27T05:56:12.990Z,19.37
2019-03-27T05:58:41.418Z,19.36
2019-03-27T06:01:09.809Z,19.37
2019-03-27T06:03:38.347Z,19.36
2019-03-27T06:06:06.744Z,19.36
2019-03-27T06:08:35.143Z,19.37
2019-03-27T06:11:03.537Z,19.36
2019-03-27T06:13:31.937Z,19.36
2019-03-27T06:16:00.329Z,19.40
2019-03-27T06:18:28.722Z,19.44
2019-03-27T06:20:57.134Z,19.48
2019-03-27T06:23:25.528Z,19.51
2019-03-27T06:25:53.935Z,19.55
2019-03-27T06:28:22.323Z,19.59
2019-03-27T06:30:50.717Z,19.68
2019-03-27T06:33:19.114Z,19.74
2019-03-27T06:35:47.512Z,19.82
2019-03-27T06:38:15.908Z,19.88
2019-03-27T06:40:44.303Z,19.95
2019-03-27T06:43:12.698Z,20.01
2019-03-27T06:45:41.158Z,20.07
2019-03-27T06:48:09.551Z,20.13
2019-03-27T06:50:37.942Z,20.18
2019-03-27T06:53:06.338Z,20.23
2019-03-27T06:55:34.852Z,20.30
2019-03-27T06:58:03.246Z,20.34
2019-03-27T07:00:35.664Z,20.39
2019-03-27T07:03:04.623Z,20.42
2019-03-27T07:05:33.019Z,20.47
2019-03-27T07:08:01.883Z,20.50
2019-03-27T07:10:30.280Z,20.54
2019-03-27T07:12:58.676Z,20.57
2019-03-27T07:15:27.093Z,20.62
2019-03-27T07:17:55.486Z,20.66
2019-03-27T07:20:23.884Z,20.69
2019-03-27T07:22:52.279Z,20.73
2019-03-27T07:25:20.691Z,20.78
2019-03-27T07:27:49.091Z,20.81
2019-03-27T07:30:17.517Z,20.85
2019-03-27T07:32:45.911Z,20.88
2019-03-27T07:35:14.343Z,20.92
2019-03-27T07:37:42.741Z,20.97
2019-03-27T07:40:11.166Z,21.01
2019-03-27T07:42:39.577Z,21.04
2019-03-27T07:45:08.011Z,21.06
2019-03-27T07:47:36.541Z,21.08
2019-03-27T07:50:06.896Z,21.10
2019-03-27T07:52:35.355Z,21.13
2019-03-27T07:55:04.179Z,21.13
2019-03-27T07:57:32.573Z,21.16
2019-03-27T08:00:01.003Z,21.18
2019-03-27T08:02:29.398Z,21.20
2019-03-27T08:04:57.823Z,21.25
2019-03-27T08:07:27.295Z,21.27
2019-03-27T08:09:55.797Z,21.27
2019-03-27T08:12:24.263Z,21.30
2019-03-27T08:14:52.699Z,21.33
2019-03-27T08:17:21.096Z,21.35
2019-03-27T08:19:49.486Z,21.36
2019-03-27T08:22:17.881Z,21.44
2019-03-27T08:24:46.282Z,21.44
2019-03-27T08:27:14.779Z,21.50
2019-03-27T08:29:43.322Z,21.52
2019-03-27T08:32:11.722Z,21.56
2019-03-27T08:34:40.137Z,21.63
2019-03-27T08:37:08.548Z,21.70
2019-03-27T08:39:36.941Z,21.80
2019-03-27T08:42:05.335Z,21.90
2019-03-27T08:44:33.729Z,21.99
2019-03-27T08:47:02.180Z,22.06
2019-03-27T08:49:30.565Z,22.07
2019-03-27T08:51:58.999Z,22.07
2019-03-27T08:54:27.384Z,22.11
2019-03-27T08:56:55.802Z,22.20
2019-03-27T09:01:51.773Z,22.30
2019-03-27T09:04:20.371Z,22.33
2019-03-27T09:06:48.802Z,22.34
2019-03-27T09:09:17.194Z,22.49
2019-03-27T09:11:45.635Z,22.57
2019-03-27T09:14:14.026Z,22.58
2019-03-27T09:16:42.453Z,22.66
2019-03-27T09:19:11.036Z,22.74
2019-03-27T09:21:39.586Z,22.84
2019-03-27T09:24:08.085Z,22.92
2019-03-27T09:26:36.652Z,22.98
2019-03-27T09:29:08.246Z,23.02
2019-03-27T09:31:44.880Z,23.06
2019-03-27T09:34:05.371Z,23.12
2019-03-27T09:36:33.790Z,23.20
2019-03-27T09:39:02.309Z,23.32
2019-03-27T09:41:30.816Z,23.33
2019-03-27T09:43:59.292Z,23.31
2019-03-27T09:46:27.773Z,23.39
2019-03-27T09:48:56.257Z,23.47
2019-03-27T09:51:24.680Z,23.51
2019-03-27T09:53:53.453Z,23.60
2019-03-27T09:56:22.015Z,23.73
2019-03-27T09:58:50.488Z,23.84
2019-03-27T10:01:19.067Z,23.84
2019-03-27T10:03:47.664Z,23.84
2019-03-27T10:06:16.115Z,23.88
2019-03-27T10:08:44.611Z,24.00
2019-03-27T10:11:13.096Z,24.10
2019-03-27T10:13:41.586Z,24.17
2019-03-27T10:16:10.042Z,24.22
2019-03-27T10:18:38.454Z,24.33
2019-03-27T10:21:06.968Z,24.46
2019-03-27T10:23:35.377Z,24.61
2019-03-27T10:26:03.800Z,24.72
2019-03-27T10:28:32.358Z,24.89
2019-03-27T10:31:00.785Z,25.04
2019-03-27T10:33:29.321Z,25.23
2019-03-27T10:35:57.801Z,25.40
2019-03-27T10:38:26.309Z,25.54
2019-03-27T10:40:54.724Z,25.58
2019-03-27T10:43:23.245Z,25.79
2019-03-27T10:45:51.669Z,25.98
2019-03-27T10:48:20.207Z,26.21
2019-03-27T10:50:48.689Z,26.45
2019-03-27T10:53:17.166Z,26.75
2019-03-27T10:55:45.589Z,27.07
2019-03-27T10:58:14.027Z,27.39
2019-03-27T11:00:42.517Z,27.77
2019-03-27T11:03:10.996Z,28.22
2019-03-27T11:05:39.545Z,28.69
2019-03-27T11:08:11.259Z,29.19
2019-03-27T11:10:38.381Z,29.72
2019-03-27T11:13:06.877Z,30.34
2019-03-27T11:15:35.294Z,30.88
2019-03-27T11:18:03.821Z,31.31
2019-03-27T11:20:32.275Z,31.75
2019-03-27T11:23:00.782Z,32.13
2019-03-27T11:25:32.836Z,32.37
2019-03-27T11:27:59.486Z,32.70
2019-03-27T11:30:36.157Z,33.00
2019-03-27T11:33:05.221Z,33.38
2019-03-27T11:35:33.645Z,33.63
2019-03-27T11:38:02.213Z,33.50
2019-03-27T11:40:30.697Z,33.72
2019-03-27T11:42:59.180Z,33.94
2019-03-27T11:45:27.598Z,34.27
2019-03-27T11:47:56.142Z,34.63
2019-03-27T11:50:24.565Z,34.88
2019-03-27T11:52:53.099Z,35.16
2019-03-27T11:55:21.520Z,35.43
2019-03-27T11:57:51.516Z,35.70
2019-03-27T12:00:19.936Z,35.87
2019-03-27T12:02:48.457Z,36.10
2019-03-27T12:05:16.874Z,36.36
2019-03-27T12:07:45.352Z,36.51
2019-03-27T12:10:14.208Z,36.77
2019-03-27T12:12:42.689Z,36.94
2019-03-27T12:15:11.168Z,37.09
2019-03-27T12:17:39.651Z,37.29
2019-03-27T12:20:08.072Z,37.51
2019-03-27T12:22:36.524Z,37.59
2019-03-27T12:25:05.673Z,37.76
2019-03-27T12:27:34.126Z,37.89
2019-03-27T12:30:05.329Z,38.08
2019-03-27T12:32:33.915Z,38.26
2019-03-27T12:35:02.395Z,38.36
2019-03-27T12:37:30.878Z,38.54
2019-03-27T12:39:59.357Z,38.68
2019-03-27T12:42:27.839Z,38.89
2019-03-27T12:44:56.296Z,39.06
2019-03-27T12:47:24.716Z,39.19
2019-03-27T12:49:53.215Z,39.47
2019-03-27T12:52:21.742Z,39.33
2019-03-27T12:54:50.218Z,39.03
2019-03-27T12:57:18.676Z,39.21
2019-03-27T12:59:47.106Z,39.41
2019-03-27T13:02:15.516Z,39.70
2019-03-27T13:04:43.947Z,39.93
2019-03-27T13:07:12.363Z,40.42
2019-03-27T13:09:40.783Z,40.48
2019-03-27T13:12:09.200Z,40.63
2019-03-27T13:14:37.682Z,40.75
2019-03-27T13:17:06.162Z,40.99
2019-03-27T13:19:34.646Z,41.02
2019-03-27T13:22:03.127Z,41.13
2019-03-27T13:24:31.603Z,41.28
2019-03-27T13:27:00.019Z,41.51
2019-03-27T13:29:28.441Z,41.38
2019-03-27T13:31:56.854Z,41.53
2019-03-27T13:34:25.322Z,41.55
2019-03-27T13:36:53.747Z,41.71
2019-03-27T13:39:22.287Z,41.79
2019-03-27T13:41:50.709Z,41.90
2019-03-27T13:44:19.147Z,41.93
2019-03-27T13:46:47.665Z,42.04
2019-03-27T13:49:16.413Z,42.09
2019-03-27T13:51:44.895Z,42.34
2019-03-27T13:54:13.336Z,42.31
2019-03-27T13:56:41.860Z,42.40
2019-03-27T13:59:10.643Z,42.41
2019-03-27T14:01:39.070Z,42.46
2019-03-27T14:04:07.607Z,42.54
2019-03-27T14:06:36.025Z,42.55
2019-03-27T14:09:07.094Z,42.54
2019-03-27T14:11:35.613Z,42.51
2019-03-27T14:14:11.219Z,42.34
2019-03-27T14:16:34.295Z,42.22
2019-03-27T14:19:02.798Z,42.03
2019-03-27T14:21:31.276Z,40.24
2019-03-27T14:23:59.754Z,38.81
2019-03-27T14:26:28.473Z,37.62
2019-03-27T14:28:57.087Z,36.50
2019-03-27T14:31:25.609Z,35.54
2019-03-27T14:33:54.193Z,34.67
2019-03-27T14:36:22.617Z,33.84
2019-03-27T14:38:51.084Z,33.15
2019-03-27T14:41:19.515Z,32.51
2019-03-27T14:43:47.988Z,31.96
2019-03-27T14:46:16.415Z,31.46
2019-03-27T14:48:44.976Z,31.03
2019-03-27T14:51:13.403Z,30.62
2019-03-27T14:53:41.934Z,30.25
2019-03-27T14:56:10.370Z,29.91
2019-03-27T14:58:38.889Z,29.59
2019-03-27T15:01:07.496Z,29.29
2019-03-27T15:03:36.081Z,29.03
2019-03-27T15:06:04.701Z,28.79
2019-03-27T15:08:33.347Z,28.57
2019-03-27T15:11:01.927Z,28.36
2019-03-27T15:13:30.511Z,28.14
2019-03-27T15:15:59.093Z,27.98
2019-03-27T15:18:27.682Z,27.81
2019-03-27T15:20:56.269Z,27.62
2019-03-27T15:23:24.844Z,27.46
2019-03-27T15:25:53.332Z,27.30
2019-03-27T15:28:21.910Z,27.14
2019-03-27T15:30:50.601Z,27.01
2019-03-27T15:33:19.183Z,26.87
2019-03-27T15:35:47.766Z,26.75
2019-03-27T15:38:16.346Z,26.61
2019-03-27T15:40:45.958Z,26.49
2019-03-27T15:43:14.645Z,26.40
2019-03-27T15:45:43.223Z,26.28
2019-03-27T15:48:11.749Z,26.18
2019-03-27T15:50:53.793Z,26.07
2019-03-27T15:53:11.025Z,25.98
2019-03-27T15:55:39.606Z,25.88
2019-03-27T15:58:08.206Z,25.79
2019-03-27T16:00:36.773Z,25.70
2019-03-27T16:03:05.353Z,25.60
2019-03-27T16:05:33.963Z,25.51
2019-03-27T16:08:02.518Z,25.44
2019-03-27T16:10:31.104Z,25.34
2019-03-27T16:12:59.691Z,25.25
2019-03-27T16:15:28.266Z,25.17
2019-03-27T16:17:56.853Z,25.07
2019-03-27T16:20:25.536Z,25.00
2019-03-27T16:22:54.131Z,24.92
2019-03-27T16:25:22.840Z,24.85
2019-03-27T16:27:51.394Z,24.77
2019-03-27T16:30:19.975Z,24.69
2019-03-27T16:32:48.769Z,24.61
2019-03-27T16:35:19.302Z,24.53
2019-03-27T16:37:47.800Z,24.47
2019-03-27T16:40:18.098Z,24.40
2019-03-27T16:42:46.686Z,24.33
2019-03-27T16:45:15.263Z,24.25
2019-03-27T16:47:43.765Z,24.20
2019-03-27T16:50:12.254Z,24.12
2019-03-27T16:52:40.810Z,24.07
2019-03-27T16:55:09.397Z,24.01
2019-03-27T16:57:37.979Z,23.93
2019-03-27T17:00:08.205Z,23.88
2019-03-27T17:02:37.198Z,23.82
2019-03-27T17:05:07.415Z,23.77
2019-03-27T17:07:40.624Z,23.71
2019-03-27T17:10:09.093Z,23.66
2019-03-27T17:12:37.672Z,23.59
2019-03-27T17:15:07.547Z,23.56
2019-03-27T17:17:36.170Z,23.50
2019-03-27T17:20:08.027Z,23.47
2019-03-27T17:22:36.713Z,23.40
2019-03-27T17:25:07.066Z,23.36
2019-03-27T17:27:36.030Z,23.32
2019-03-27T17:30:06.830Z,23.27
2019-03-27T17:32:35.349Z,23.24
2019-03-27T17:35:05.434Z,23.21
2019-03-27T17:37:33.868Z,23.17
2019-03-27T17:40:02.428Z,23.13
2019-03-27T17:42:31.014Z,23.10
2019-03-27T17:45:00.017Z,23.06
2019-03-27T17:47:28.686Z,23.04
2019-03-27T17:49:57.277Z,23.00
2019-03-27T17:52:26.266Z,22.97
2019-03-27T17:54:55.973Z,22.93
2019-03-27T17:57:25.380Z,22.90
2019-03-27T17:59:53.962Z,22.87
2019-03-27T18:02:22.650Z,22.84
2019-03-27T18:04:51.235Z,22.82
2019-03-27T18:07:19.816Z,22.79
2019-03-27T18:09:48.808Z,22.75
2019-03-27T18:12:17.393Z,22.74
2019-03-27T18:14:46.286Z,22.70
2019-03-27T18:17:14.854Z,22.68
2019-03-27T18:19:43.440Z,22.66
2019-03-27T18:22:13.353Z,22.64
2019-03-27T18:24:43.588Z,22.60
2019-03-27T18:27:12.675Z,22.58
2019-03-27T18:29:41.256Z,22.58
2019-03-27T18:32:09.840Z,22.54
2019-03-27T18:34:38.424Z,22.53
2019-03-27T18:37:06.900Z,22.49
2019-03-27T18:39:35.488Z,22.48
2019-03-27T18:42:04.168Z,22.45
2019-03-27T18:44:32.756Z,22.43
2019-03-27T18:47:01.340Z,22.41
2019-03-27T18:49:29.832Z,22.40
2019-03-27T18:51:58.456Z,22.38
2019-03-27T18:54:27.396Z,22.35
2019-03-27T18:56:55.987Z,22.34
2019-03-27T18:59:24.667Z,22.33
2019-03-27T19:01:53.247Z,22.31
2019-03-27T19:04:21.649Z,22.28
2019-03-27T19:06:50.058Z,22.27
2019-03-27T19:09:18.540Z,22.24
2019-03-27T19:11:46.945Z,22.23
2019-03-27T19:14:15.361Z,22.22
2019-03-27T19:16:43.761Z,22.20
2019-03-27T19:19:12.165Z,22.19
2019-03-27T19:21:40.636Z,22.17
2019-03-27T19:24:14.969Z,22.15
2019-03-27T19:26:39.174Z,22.14
2019-03-27T19:29:07.571Z,22.11
2019-03-27T19:31:35.994Z,22.10
2019-03-27T19:34:04.468Z,22.09
2019-03-27T19:36:33.041Z,22.07
2019-03-27T19:39:01.447Z,22.06
2019-03-27T19:41:30.146Z,22.03
2019-03-27T19:43:58.547Z,22.03
2019-03-27T19:46:28.574Z,22.01
2019-03-27T19:48:59.721Z,22.00
2019-03-27T19:51:28.145Z,21.98
2019-03-27T19:53:56.613Z,21.96
2019-03-27T19:56:25.011Z,21.94
2019-03-27T19:58:53.408Z,21.92
2019-03-27T20:01:21.836Z,21.91
2019-03-27T20:03:50.230Z,21.91
2019-03-27T20:06:18.675Z,21.90
2019-03-27T20:08:47.070Z,21.88
2019-03-27T20:11:15.537Z,21.86
2019-03-27T20:13:44.085Z,21.85
2019-03-27T20:16:12.534Z,21.85
2019-03-27T20:18:40.934Z,21.84
2019-03-27T20:21:09.374Z,21.83
2019-03-27T20:23:37.774Z,21.82
2019-03-27T20:26:06.197Z,21.83
2019-03-27T20:28:34.597Z,21.84
2019-03-27T20:31:03.028Z,21.85
2019-03-27T20:33:31.423Z,21.84
2019-03-27T20:35:59.856Z,21.83
2019-03-27T20:38:28.257Z,21.82
2019-03-27T20:40:56.702Z,21.81
2019-03-27T20:43:25.094Z,21.79
2019-03-27T20:45:53.501Z,21.77
2019-03-27T20:48:21.909Z,21.75
2019-03-27T20:50:50.308Z,21.71
2019-03-27T20:53:18.714Z,21.70
2019-03-27T20:55:47.122Z,21.66
2019-03-27T20:58:15.530Z,21.65
2019-03-27T21:00:43.937Z,21.62
2019-03-27T21:03:12.341Z,21.58
2019-03-27T21:05:40.748Z,21.58
2019-03-27T21:08:09.154Z,21.55
2019-03-27T21:10:37.549Z,21.53
2019-03-27T21:13:05.965Z,21.51
2019-03-27T21:15:34.440Z,21.50
2019-03-27T21:18:02.832Z,21.46
2019-03-27T21:20:31.269Z,21.46
2019-03-27T21:22:59.671Z,21.45
2019-03-27T21:25:28.066Z,21.43
2019-03-27T21:27:57.009Z,21.41
2019-03-27T21:30:25.411Z,21.38
2019-03-27T21:32:53.845Z,21.37
2019-03-27T21:35:22.240Z,21.36
2019-03-27T21:37:50.667Z,21.35
2019-03-27T21:40:19.072Z,21.32
2019-03-27T21:42:47.515Z,21.31
2019-03-27T21:45:15.981Z,21.31
2019-03-27T21:47:44.412Z,21.29
2019-03-27T21:50:12.807Z,21.28
2019-03-27T21:52:41.246Z,21.25
2019-03-27T21:55:22.035Z,21.26
2019-03-27T21:57:39.818Z,21.23
2019-03-27T22:00:08.283Z,21.21
2019-03-27T22:02:36.713Z,21.20
2019-03-27T22:05:06.476Z,21.18
2019-03-27T22:07:34.908Z,21.18
2019-03-27T22:10:03.970Z,21.16
2019-03-27T22:12:32.372Z,21.17
2019-03-27T22:15:00.768Z,21.16
2019-03-27T22:17:29.170Z,21.15
2019-03-27T22:19:57.549Z,21.14
2019-03-27T22:22:25.932Z,21.13
2019-03-27T22:24:54.309Z,21.13
2019-03-27T22:27:22.681Z,21.11
2019-03-27T22:29:51.052Z,21.11
2019-03-27T22:32:19.441Z,21.11
2019-03-27T22:34:47.816Z,21.08
2019-03-27T22:37:16.220Z,21.09
2019-03-27T22:39:44.599Z,21.09
2019-03-27T22:42:12.998Z,21.08
2019-03-27T22:44:41.372Z,21.08
2019-03-27T22:47:09.735Z,21.08
2019-03-27T22:49:38.132Z,21.08
2019-03-27T22:52:06.615Z,21.06
2019-03-27T22:54:34.992Z,21.07
2019-03-27T22:57:03.372Z,21.06
2019-03-27T22:59:31.751Z,21.06
2019-03-27T23:02:00.139Z,21.05
2019-03-27T23:04:28.537Z,21.05
2019-03-27T23:06:56.914Z,21.04
2019-03-27T23:09:25.291Z,21.02
2019-03-27T23:11:53.665Z,21.01
2019-03-27T23:14:22.131Z,21.00
2019-03-27T23:16:50.652Z,21.00
2019-03-27T23:19:19.041Z,21.00
2019-03-27T23:21:47.448Z,20.98
2019-03-27T23:24:15.829Z,20.98
2019-03-27T23:26:44.197Z,20.97
2019-03-27T23:29:12.579Z,20.95
2019-03-27T23:31:40.973Z,20.95
2019-03-27T23:34:09.357Z,20.92
2019-03-27T23:36:37.737Z,20.92
2019-03-27T23:39:07.652Z,20.90
2019-03-27T23:41:36.027Z,20.89
2019-03-27T23:44:04.407Z,20.89
2019-03-27T23:46:32.789Z,20.89
2019-03-27T23:49:01.253Z,20.88
2019-03-27T23:51:29.694Z,20.88
2019-03-27T23:53:58.091Z,20.87
2019-03-27T23:56:26.525Z,20.86
2019-03-27T23:58:54.930Z,20.86
